sensor_id;sensor_type;location;lat;lon;timestamp;temperature;humidity
75380;HTU21D;65641;44.714;37.756;2023-06-19T00:00:05;23.03;63.29
75380;HTU21D;65641;44.714;37.756;2023-06-19T00:01:16;23.02;63.24
75380;HTU21D;65641;44.714;37.756;2023-06-19T00:02:20;23.02;63.21
75380;HTU21D;65641;44.714;37.756;2023-06-19T00:03:23;23.02;63.21
75380;HTU21D;65641;44.714;37.756;2023-06-19T00:04:27;23.02;63.22
75380;HTU21D;65641;44.714;37.756;2023-06-19T00:05:30;23.00;63.23
75380;HTU21D;65641;44.714;37.756;2023-06-19T00:06:34;23.00;63.25
75380;HTU21D;65641;44.714;37.756;2023-06-19T00:07:37;23.00;63.15
75380;HTU21D;65641;44.714;37.756;2023-06-19T00:08:41;23.00;63.21
75380;HTU21D;65641;44.714;37.756;2023-06-19T00:09:45;22.98;63.16
75380;HTU21D;65641;44.714;37.756;2023-06-19T00:10:49;22.99;63.15
75380;HTU21D;65641;44.714;37.756;2023-06-19T00:11:52;22.98;63.20
75380;HTU21D;65641;44.714;37.756;2023-06-19T00:12:56;22.98;63.21
75380;HTU21D;65641;44.714;37.756;2023-06-19T00:13:59;22.97;63.14
75380;HTU21D;65641;44.714;37.756;2023-06-19T00:15:04;22.98;63.15
75380;HTU21D;65641;44.714;37.756;2023-06-19T00:16:08;22.95;63.19
75380;HTU21D;65641;44.714;37.756;2023-06-19T00:17:11;22.96;63.23
75380;HTU21D;65641;44.714;37.756;2023-06-19T00:18:19;22.95;63.16
75380;HTU21D;65641;44.714;37.756;2023-06-19T00:19:23;22.94;63.19
75380;HTU21D;65641;44.714;37.756;2023-06-19T00:20:26;22.95;63.18
75380;HTU21D;65641;44.714;37.756;2023-06-19T00:21:30;22.93;63.22
75380;HTU21D;65641;44.714;37.756;2023-06-19T00:22:33;22.93;63.26
75380;HTU21D;65641;44.714;37.756;2023-06-19T00:23:37;22.93;63.22
75380;HTU21D;65641;44.714;37.756;2023-06-19T00:24:40;22.91;63.25
75380;HTU21D;65641;44.714;37.756;2023-06-19T00:25:44;22.91;63.20
75380;HTU21D;65641;44.714;37.756;2023-06-19T00:26:47;22.91;63.27
75380;HTU21D;65641;44.714;37.756;2023-06-19T00:27:51;22.88;63.31
75380;HTU21D;65641;44.714;37.756;2023-06-19T00:28:54;22.87;63.33
75380;HTU21D;65641;44.714;37.756;2023-06-19T00:29:58;22.88;63.32
75380;HTU21D;65641;44.714;37.756;2023-06-19T00:31:07;22.86;63.36
75380;HTU21D;65641;44.714;37.756;2023-06-19T00:32:11;22.85;63.38
75380;HTU21D;65641;44.714;37.756;2023-06-19T00:33:17;22.83;63.37
75380;HTU21D;65641;44.714;37.756;2023-06-19T00:34:20;22.84;63.34
75380;HTU21D;65641;44.714;37.756;2023-06-19T00:35:27;22.83;63.35
75380;HTU21D;65641;44.714;37.756;2023-06-19T00:36:33;22.82;63.41
75380;HTU21D;65641;44.714;37.756;2023-06-19T00:37:44;22.82;63.44
75380;HTU21D;65641;44.714;37.756;2023-06-19T00:38:47;22.80;63.45
75380;HTU21D;65641;44.714;37.756;2023-06-19T00:39:51;22.81;63.44
75380;HTU21D;65641;44.714;37.756;2023-06-19T00:40:55;22.79;63.45
75380;HTU21D;65641;44.714;37.756;2023-06-19T00:41:59;22.79;63.42
75380;HTU21D;65641;44.714;37.756;2023-06-19T00:43:03;22.79;63.41
75380;HTU21D;65641;44.714;37.756;2023-06-19T00:44:06;22.77;63.42
75380;HTU21D;65641;44.714;37.756;2023-06-19T00:45:10;22.78;63.39
75380;HTU21D;65641;44.714;37.756;2023-06-19T00:46:13;22.79;63.40
75380;HTU21D;65641;44.714;37.756;2023-06-19T00:47:17;22.77;63.40
75380;HTU21D;65641;44.714;37.756;2023-06-19T00:48:21;22.76;63.41
75380;HTU21D;65641;44.714;37.756;2023-06-19T00:49:28;22.76;63.41
75380;HTU21D;65641;44.714;37.756;2023-06-19T00:50:32;22.75;63.46
75380;HTU21D;65641;44.714;37.756;2023-06-19T00:51:37;22.75;63.45
75380;HTU21D;65641;44.714;37.756;2023-06-19T00:52:41;22.72;63.44
75380;HTU21D;65641;44.714;37.756;2023-06-19T00:53:44;22.72;63.40
75380;HTU21D;65641;44.714;37.756;2023-06-19T00:54:48;22.71;63.48
75380;HTU21D;65641;44.714;37.756;2023-06-19T00:55:53;22.70;63.49
75380;HTU21D;65641;44.714;37.756;2023-06-19T00:56:57;22.69;63.45
75380;HTU21D;65641;44.714;37.756;2023-06-19T00:58:01;22.70;63.45
75380;HTU21D;65641;44.714;37.756;2023-06-19T00:59:14;22.69;63.44
75380;HTU21D;65641;44.714;37.756;2023-06-19T01:00:18;22.69;63.53
75380;HTU21D;65641;44.714;37.756;2023-06-19T01:01:22;22.67;63.47
75380;HTU21D;65641;44.714;37.756;2023-06-19T01:02:29;22.66;63.44
75380;HTU21D;65641;44.714;37.756;2023-06-19T01:03:33;22.66;63.50
75380;HTU21D;65641;44.714;37.756;2023-06-19T01:04:37;22.67;63.46
75380;HTU21D;65641;44.714;37.756;2023-06-19T01:05:41;22.65;63.44
75380;HTU21D;65641;44.714;37.756;2023-06-19T01:06:59;22.65;63.49
75380;HTU21D;65641;44.714;37.756;2023-06-19T01:09:33;22.65;63.47
75380;HTU21D;65641;44.714;37.756;2023-06-19T01:10:43;22.63;63.50
75380;HTU21D;65641;44.714;37.756;2023-06-19T01:11:50;22.64;63.53
75380;HTU21D;65641;44.714;37.756;2023-06-19T01:13:22;22.64;63.54
75380;HTU21D;65641;44.714;37.756;2023-06-19T01:14:28;22.63;63.50
75380;HTU21D;65641;44.714;37.756;2023-06-19T01:15:35;22.62;63.56
75380;HTU21D;65641;44.714;37.756;2023-06-19T01:16:39;22.60;63.53
75380;HTU21D;65641;44.714;37.756;2023-06-19T01:17:44;22.58;63.47
75380;HTU21D;65641;44.714;37.756;2023-06-19T01:18:49;22.60;63.52
75380;HTU21D;65641;44.714;37.756;2023-06-19T01:19:57;22.57;63.53
75380;HTU21D;65641;44.714;37.756;2023-06-19T01:21:16;22.57;63.50
75380;HTU21D;65641;44.714;37.756;2023-06-19T01:22:46;22.58;63.41
75380;HTU21D;65641;44.714;37.756;2023-06-19T01:23:49;22.58;63.46
75380;HTU21D;65641;44.714;37.756;2023-06-19T01:24:53;22.57;63.50
75380;HTU21D;65641;44.714;37.756;2023-06-19T01:25:56;22.57;63.44
75380;HTU21D;65641;44.714;37.756;2023-06-19T01:27:00;22.57;63.47
75380;HTU21D;65641;44.714;37.756;2023-06-19T01:28:09;22.55;63.47
75380;HTU21D;65641;44.714;37.756;2023-06-19T01:29:15;22.56;63.47
75380;HTU21D;65641;44.714;37.756;2023-06-19T01:30:20;22.55;63.43
75380;HTU21D;65641;44.714;37.756;2023-06-19T01:31:29;22.56;63.46
75380;HTU21D;65641;44.714;37.756;2023-06-19T01:33:57;22.54;63.44
75380;HTU21D;65641;44.714;37.756;2023-06-19T01:35:02;22.54;63.44
75380;HTU21D;65641;44.714;37.756;2023-06-19T01:36:07;22.54;63.40
75380;HTU21D;65641;44.714;37.756;2023-06-19T01:37:11;22.54;63.40
75380;HTU21D;65641;44.714;37.756;2023-06-19T01:38:16;22.54;63.40
75380;HTU21D;65641;44.714;37.756;2023-06-19T01:39:20;22.53;63.40
75380;HTU21D;65641;44.714;37.756;2023-06-19T01:40:24;22.53;63.40
75380;HTU21D;65641;44.714;37.756;2023-06-19T01:41:30;22.52;63.38
75380;HTU21D;65641;44.714;37.756;2023-06-19T01:42:37;22.53;63.39
75380;HTU21D;65641;44.714;37.756;2023-06-19T01:43:41;22.54;63.39
75380;HTU21D;65641;44.714;37.756;2023-06-19T01:44:47;22.53;63.38
75380;HTU21D;65641;44.714;37.756;2023-06-19T01:45:50;22.54;63.35
75380;HTU21D;65641;44.714;37.756;2023-06-19T01:46:54;22.52;63.42
75380;HTU21D;65641;44.714;37.756;2023-06-19T01:47:58;22.53;63.31
75380;HTU21D;65641;44.714;37.756;2023-06-19T01:49:01;22.52;63.37
75380;HTU21D;65641;44.714;37.756;2023-06-19T01:50:10;22.53;63.37
75380;HTU21D;65641;44.714;37.756;2023-06-19T01:51:14;22.51;63.40
75380;HTU21D;65641;44.714;37.756;2023-06-19T01:52:17;22.53;63.36
75380;HTU21D;65641;44.714;37.756;2023-06-19T01:53:21;22.52;63.31
75380;HTU21D;65641;44.714;37.756;2023-06-19T01:54:24;22.51;63.34
75380;HTU21D;65641;44.714;37.756;2023-06-19T01:55:30;22.51;63.34
75380;HTU21D;65641;44.714;37.756;2023-06-19T01:56:39;22.53;63.27
75380;HTU21D;65641;44.714;37.756;2023-06-19T01:57:42;22.52;63.27
75380;HTU21D;65641;44.714;37.756;2023-06-19T01:58:51;22.52;63.23
75380;HTU21D;65641;44.714;37.756;2023-06-19T01:59:54;22.51;63.28
75380;HTU21D;65641;44.714;37.756;2023-06-19T02:00:58;22.51;63.23
75380;HTU21D;65641;44.714;37.756;2023-06-19T02:02:01;22.52;63.21
75380;HTU21D;65641;44.714;37.756;2023-06-19T02:03:07;22.54;63.18
75380;HTU21D;65641;44.714;37.756;2023-06-19T02:04:10;22.53;63.18
75380;HTU21D;65641;44.714;37.756;2023-06-19T02:05:14;22.54;63.13
75380;HTU21D;65641;44.714;37.756;2023-06-19T02:06:18;22.53;63.14
75380;HTU21D;65641;44.714;37.756;2023-06-19T02:07:22;22.54;63.08
75380;HTU21D;65641;44.714;37.756;2023-06-19T02:08:25;22.52;63.10
75380;HTU21D;65641;44.714;37.756;2023-06-19T02:09:29;22.54;63.05
75380;HTU21D;65641;44.714;37.756;2023-06-19T02:10:32;22.53;63.09
75380;HTU21D;65641;44.714;37.756;2023-06-19T02:11:37;22.55;63.05
75380;HTU21D;65641;44.714;37.756;2023-06-19T02:12:42;22.56;62.95
75380;HTU21D;65641;44.714;37.756;2023-06-19T02:13:46;22.56;62.89
75380;HTU21D;65641;44.714;37.756;2023-06-19T02:14:57;22.60;62.90
75380;HTU21D;65641;44.714;37.756;2023-06-19T02:16:04;22.58;62.86
75380;HTU21D;65641;44.714;37.756;2023-06-19T02:17:10;22.61;62.79
75380;HTU21D;65641;44.714;37.756;2023-06-19T02:18:14;22.63;62.73
75380;HTU21D;65641;44.714;37.756;2023-06-19T02:19:18;22.64;62.69
75380;HTU21D;65641;44.714;37.756;2023-06-19T02:20:24;22.66;62.66
75380;HTU21D;65641;44.714;37.756;2023-06-19T02:21:31;22.66;62.57
75380;HTU21D;65641;44.714;37.756;2023-06-19T02:22:35;22.68;62.60
75380;HTU21D;65641;44.714;37.756;2023-06-19T02:23:43;22.69;62.44
75380;HTU21D;65641;44.714;37.756;2023-06-19T02:24:52;22.71;62.45
75380;HTU21D;65641;44.714;37.756;2023-06-19T02:25:55;22.72;62.40
75380;HTU21D;65641;44.714;37.756;2023-06-19T02:27:01;22.72;62.41
75380;HTU21D;65641;44.714;37.756;2023-06-19T02:28:05;22.75;62.37
75380;HTU21D;65641;44.714;37.756;2023-06-19T02:29:11;22.75;62.29
75380;HTU21D;65641;44.714;37.756;2023-06-19T02:30:15;22.76;62.32
75380;HTU21D;65641;44.714;37.756;2023-06-19T02:31:18;22.78;62.28
75380;HTU21D;65641;44.714;37.756;2023-06-19T02:32:23;22.77;62.24
75380;HTU21D;65641;44.714;37.756;2023-06-19T02:33:26;22.78;62.23
75380;HTU21D;65641;44.714;37.756;2023-06-19T02:34:30;22.78;62.21
75380;HTU21D;65641;44.714;37.756;2023-06-19T02:35:33;22.78;62.18
75380;HTU21D;65641;44.714;37.756;2023-06-19T02:36:37;22.80;62.18
75380;HTU21D;65641;44.714;37.756;2023-06-19T02:37:40;22.79;62.12
75380;HTU21D;65641;44.714;37.756;2023-06-19T02:38:44;22.80;62.14
75380;HTU21D;65641;44.714;37.756;2023-06-19T02:39:47;22.82;62.15
75380;HTU21D;65641;44.714;37.756;2023-06-19T02:40:50;22.82;62.09
75380;HTU21D;65641;44.714;37.756;2023-06-19T02:41:54;22.83;62.06
75380;HTU21D;65641;44.714;37.756;2023-06-19T02:42:57;22.84;62.04
75380;HTU21D;65641;44.714;37.756;2023-06-19T02:44:01;22.86;61.96
75380;HTU21D;65641;44.714;37.756;2023-06-19T02:45:05;22.86;61.92
75380;HTU21D;65641;44.714;37.756;2023-06-19T02:46:20;22.90;61.95
75380;HTU21D;65641;44.714;37.756;2023-06-19T02:47:23;22.91;61.93
75380;HTU21D;65641;44.714;37.756;2023-06-19T02:48:28;22.92;61.91
75380;HTU21D;65641;44.714;37.756;2023-06-19T02:49:31;22.94;61.83
75380;HTU21D;65641;44.714;37.756;2023-06-19T02:50:35;22.93;61.76
75380;HTU21D;65641;44.714;37.756;2023-06-19T02:51:38;22.96;61.73
75380;HTU21D;65641;44.714;37.756;2023-06-19T02:52:44;22.96;61.76
75380;HTU21D;65641;44.714;37.756;2023-06-19T02:53:47;22.98;61.67
75380;HTU21D;65641;44.714;37.756;2023-06-19T02:54:51;22.99;61.66
75380;HTU21D;65641;44.714;37.756;2023-06-19T02:55:55;23.01;61.56
75380;HTU21D;65641;44.714;37.756;2023-06-19T02:56:59;23.03;61.47
75380;HTU21D;65641;44.714;37.756;2023-06-19T02:58:03;23.06;61.48
75380;HTU21D;65641;44.714;37.756;2023-06-19T02:59:06;23.08;61.42
75380;HTU21D;65641;44.714;37.756;2023-06-19T03:00:10;23.11;61.30
75380;HTU21D;65641;44.714;37.756;2023-06-19T03:01:15;23.12;61.27
75380;HTU21D;65641;44.714;37.756;2023-06-19T03:02:20;23.15;61.22
75380;HTU21D;65641;44.714;37.756;2023-06-19T03:03:24;23.15;61.20
75380;HTU21D;65641;44.714;37.756;2023-06-19T03:04:27;23.20;61.10
75380;HTU21D;65641;44.714;37.756;2023-06-19T03:05:31;23.22;61.07
75380;HTU21D;65641;44.714;37.756;2023-06-19T03:06:35;23.25;60.98
75380;HTU21D;65641;44.714;37.756;2023-06-19T03:07:43;23.27;60.95
75380;HTU21D;65641;44.714;37.756;2023-06-19T03:08:46;23.30;60.96
75380;HTU21D;65641;44.714;37.756;2023-06-19T03:09:50;23.32;60.89
75380;HTU21D;65641;44.714;37.756;2023-06-19T03:10:53;23.37;60.81
75380;HTU21D;65641;44.714;37.756;2023-06-19T03:11:57;23.40;60.69
75380;HTU21D;65641;44.714;37.756;2023-06-19T03:13:00;23.42;60.54
75380;HTU21D;65641;44.714;37.756;2023-06-19T03:14:07;23.47;60.50
75380;HTU21D;65641;44.714;37.756;2023-06-19T03:15:11;23.51;60.35
75380;HTU21D;65641;44.714;37.756;2023-06-19T03:16:24;23.55;60.26
75380;HTU21D;65641;44.714;37.756;2023-06-19T03:17:28;23.59;60.23
75380;HTU21D;65641;44.714;37.756;2023-06-19T03:18:31;23.62;60.09
75380;HTU21D;65641;44.714;37.756;2023-06-19T03:19:35;23.68;60.01
75380;HTU21D;65641;44.714;37.756;2023-06-19T03:20:39;23.73;59.90
75380;HTU21D;65641;44.714;37.756;2023-06-19T03:21:43;23.76;59.85
75380;HTU21D;65641;44.714;37.756;2023-06-19T03:22:47;23.81;59.74
75380;HTU21D;65641;44.714;37.756;2023-06-19T03:23:52;23.85;59.66
75380;HTU21D;65641;44.714;37.756;2023-06-19T03:24:58;23.91;59.45
75380;HTU21D;65641;44.714;37.756;2023-06-19T03:26:01;23.94;59.44
75380;HTU21D;65641;44.714;37.756;2023-06-19T03:27:05;23.98;59.37
75380;HTU21D;65641;44.714;37.756;2023-06-19T03:28:09;24.01;59.25
75380;HTU21D;65641;44.714;37.756;2023-06-19T03:29:13;24.04;59.16
75380;HTU21D;65641;44.714;37.756;2023-06-19T03:30:28;24.09;59.09
75380;HTU21D;65641;44.714;37.756;2023-06-19T03:31:32;24.12;58.94
75380;HTU21D;65641;44.714;37.756;2023-06-19T03:32:36;24.15;58.95
75380;HTU21D;65641;44.714;37.756;2023-06-19T03:33:41;24.19;58.87
75380;HTU21D;65641;44.714;37.756;2023-06-19T03:34:46;24.21;58.82
75380;HTU21D;65641;44.714;37.756;2023-06-19T03:35:50;24.27;58.69
75380;HTU21D;65641;44.714;37.756;2023-06-19T03:37:13;24.29;58.54
75380;HTU21D;65641;44.714;37.756;2023-06-19T03:38:18;24.32;58.45
75380;HTU21D;65641;44.714;37.756;2023-06-19T03:39:22;24.35;58.38
75380;HTU21D;65641;44.714;37.756;2023-06-19T03:40:37;24.35;58.42
75380;HTU21D;65641;44.714;37.756;2023-06-19T03:41:45;24.40;58.38
75380;HTU21D;65641;44.714;37.756;2023-06-19T03:42:49;24.43;58.31
75380;HTU21D;65641;44.714;37.756;2023-06-19T03:43:52;24.42;58.26
75380;HTU21D;65641;44.714;37.756;2023-06-19T03:44:56;24.42;58.26
75380;HTU21D;65641;44.714;37.756;2023-06-19T03:45:59;24.44;58.29
75380;HTU21D;65641;44.714;37.756;2023-06-19T03:47:03;24.44;58.22
75380;HTU21D;65641;44.714;37.756;2023-06-19T03:48:07;24.45;58.26
75380;HTU21D;65641;44.714;37.756;2023-06-19T03:49:11;24.44;58.26
75380;HTU21D;65641;44.714;37.756;2023-06-19T03:50:14;24.44;58.30
75380;HTU21D;65641;44.714;37.756;2023-06-19T03:51:33;24.46;58.31
75380;HTU21D;65641;44.714;37.756;2023-06-19T03:52:37;24.45;58.32
75380;HTU21D;65641;44.714;37.756;2023-06-19T03:53:41;24.46;58.25
75380;HTU21D;65641;44.714;37.756;2023-06-19T03:54:45;24.45;58.29
75380;HTU21D;65641;44.714;37.756;2023-06-19T03:55:48;24.46;58.26
75380;HTU21D;65641;44.714;37.756;2023-06-19T03:56:52;24.46;58.29
75380;HTU21D;65641;44.714;37.756;2023-06-19T03:57:56;24.46;58.25
75380;HTU21D;65641;44.714;37.756;2023-06-19T03:58:59;24.48;58.28
75380;HTU21D;65641;44.714;37.756;2023-06-19T04:00:03;24.48;58.25
75380;HTU21D;65641;44.714;37.756;2023-06-19T04:01:14;24.49;58.35
75380;HTU21D;65641;44.714;37.756;2023-06-19T04:02:17;24.47;58.33
75380;HTU21D;65641;44.714;37.756;2023-06-19T04:03:21;24.49;58.35
75380;HTU21D;65641;44.714;37.756;2023-06-19T04:04:25;24.53;58.32
75380;HTU21D;65641;44.714;37.756;2023-06-19T04:05:30;24.54;58.23
75380;HTU21D;65641;44.714;37.756;2023-06-19T04:06:34;24.55;58.25
75380;HTU21D;65641;44.714;37.756;2023-06-19T04:07:37;24.56;58.16
75380;HTU21D;65641;44.714;37.756;2023-06-19T04:08:41;24.57;58.20
75380;HTU21D;65641;44.714;37.756;2023-06-19T04:09:47;24.57;58.17
75380;HTU21D;65641;44.714;37.756;2023-06-19T04:10:53;24.59;58.14
75380;HTU21D;65641;44.714;37.756;2023-06-19T04:11:56;24.61;58.10
75380;HTU21D;65641;44.714;37.756;2023-06-19T04:13:00;24.63;58.01
75380;HTU21D;65641;44.714;37.756;2023-06-19T04:14:05;24.65;57.93
75380;HTU21D;65641;44.714;37.756;2023-06-19T04:15:10;24.69;57.88
75380;HTU21D;65641;44.714;37.756;2023-06-19T04:16:14;24.72;57.78
75380;HTU21D;65641;44.714;37.756;2023-06-19T04:17:17;24.75;57.72
75380;HTU21D;65641;44.714;37.756;2023-06-19T04:18:21;24.78;57.61
75380;HTU21D;65641;44.714;37.756;2023-06-19T04:19:24;24.80;57.58
75380;HTU21D;65641;44.714;37.756;2023-06-19T04:20:28;24.82;57.54
75380;HTU21D;65641;44.714;37.756;2023-06-19T04:21:32;24.84;57.48
75380;HTU21D;65641;44.714;37.756;2023-06-19T04:22:35;24.86;57.42
75380;HTU21D;65641;44.714;37.756;2023-06-19T04:23:39;24.88;57.34
75380;HTU21D;65641;44.714;37.756;2023-06-19T04:24:42;24.90;57.36
75380;HTU21D;65641;44.714;37.756;2023-06-19T04:25:47;24.91;57.31
75380;HTU21D;65641;44.714;37.756;2023-06-19T04:26:50;24.93;57.26
75380;HTU21D;65641;44.714;37.756;2023-06-19T04:27:59;24.98;57.19
75380;HTU21D;65641;44.714;37.756;2023-06-19T04:29:03;25.00;57.13
75380;HTU21D;65641;44.714;37.756;2023-06-19T04:30:13;25.00;57.10
75380;HTU21D;65641;44.714;37.756;2023-06-19T04:31:17;25.03;57.08
75380;HTU21D;65641;44.714;37.756;2023-06-19T04:32:23;25.03;57.03
75380;HTU21D;65641;44.714;37.756;2023-06-19T04:33:29;25.06;56.98
75380;HTU21D;65641;44.714;37.756;2023-06-19T04:34:33;25.06;56.98
75380;HTU21D;65641;44.714;37.756;2023-06-19T04:35:37;25.08;56.92
75380;HTU21D;65641;44.714;37.756;2023-06-19T04:36:43;25.09;56.93
75380;HTU21D;65641;44.714;37.756;2023-06-19T04:37:47;25.12;56.87
75380;HTU21D;65641;44.714;37.756;2023-06-19T04:38:52;25.14;56.81
75380;HTU21D;65641;44.714;37.756;2023-06-19T04:39:55;25.16;56.81
75380;HTU21D;65641;44.714;37.756;2023-06-19T04:40:59;25.17;56.75
75380;HTU21D;65641;44.714;37.756;2023-06-19T04:42:03;25.19;56.74
75380;HTU21D;65641;44.714;37.756;2023-06-19T04:43:06;25.21;56.72
75380;HTU21D;65641;44.714;37.756;2023-06-19T04:44:10;25.22;56.71
75380;HTU21D;65641;44.714;37.756;2023-06-19T04:45:16;25.23;56.69
75380;HTU21D;65641;44.714;37.756;2023-06-19T04:46:20;25.27;56.64
75380;HTU21D;65641;44.714;37.756;2023-06-19T04:47:23;25.27;56.64
75380;HTU21D;65641;44.714;37.756;2023-06-19T04:48:41;25.29;56.61
75380;HTU21D;65641;44.714;37.756;2023-06-19T04:49:45;25.30;56.56
75380;HTU21D;65641;44.714;37.756;2023-06-19T04:50:49;25.29;56.61
75380;HTU21D;65641;44.714;37.756;2023-06-19T04:51:52;25.33;56.59
75380;HTU21D;65641;44.714;37.756;2023-06-19T04:52:56;25.32;56.59
75380;HTU21D;65641;44.714;37.756;2023-06-19T04:54:00;25.33;56.56
75380;HTU21D;65641;44.714;37.756;2023-06-19T04:55:07;25.37;56.47
75380;HTU21D;65641;44.714;37.756;2023-06-19T04:56:16;25.40;56.43
75380;HTU21D;65641;44.714;37.756;2023-06-19T04:57:25;25.42;56.39
75380;HTU21D;65641;44.714;37.756;2023-06-19T04:58:29;25.43;56.39
75380;HTU21D;65641;44.714;37.756;2023-06-19T04:59:35;25.46;56.35
75380;HTU21D;65641;44.714;37.756;2023-06-19T05:00:39;25.51;56.26
75380;HTU21D;65641;44.714;37.756;2023-06-19T05:01:50;25.52;56.24
75380;HTU21D;65641;44.714;37.756;2023-06-19T05:02:57;25.56;56.18
75380;HTU21D;65641;44.714;37.756;2023-06-19T05:04:03;25.58;56.12
75380;HTU21D;65641;44.714;37.756;2023-06-19T05:05:07;25.59;56.07
75380;HTU21D;65641;44.714;37.756;2023-06-19T05:06:11;25.62;56.04
75380;HTU21D;65641;44.714;37.756;2023-06-19T05:07:15;25.65;56.01
75380;HTU21D;65641;44.714;37.756;2023-06-19T05:08:21;25.67;55.91
75380;HTU21D;65641;44.714;37.756;2023-06-19T05:09:24;25.68;55.90
75380;HTU21D;65641;44.714;37.756;2023-06-19T05:10:28;25.74;55.79
75380;HTU21D;65641;44.714;37.756;2023-06-19T05:11:31;25.76;55.77
75380;HTU21D;65641;44.714;37.756;2023-06-19T05:12:35;25.79;55.68
75380;HTU21D;65641;44.714;37.756;2023-06-19T05:13:39;25.80;55.66
75380;HTU21D;65641;44.714;37.756;2023-06-19T05:14:42;25.83;55.58
75380;HTU21D;65641;44.714;37.756;2023-06-19T05:15:46;25.88;55.52
75380;HTU21D;65641;44.714;37.756;2023-06-19T05:16:49;25.90;55.43
75380;HTU21D;65641;44.714;37.756;2023-06-19T05:17:53;25.94;55.36
75380;HTU21D;65641;44.714;37.756;2023-06-19T05:18:57;25.97;55.35
75380;HTU21D;65641;44.714;37.756;2023-06-19T05:20:00;25.98;55.36
75380;HTU21D;65641;44.714;37.756;2023-06-19T05:21:04;25.99;55.27
75380;HTU21D;65641;44.714;37.756;2023-06-19T05:22:07;26.03;55.19
75380;HTU21D;65641;44.714;37.756;2023-06-19T05:23:11;26.07;55.17
75380;HTU21D;65641;44.714;37.756;2023-06-19T05:24:14;26.10;55.12
75380;HTU21D;65641;44.714;37.756;2023-06-19T05:25:18;26.12;54.97
75380;HTU21D;65641;44.714;37.756;2023-06-19T05:26:21;26.17;54.93
75380;HTU21D;65641;44.714;37.756;2023-06-19T05:27:25;26.18;54.97
75380;HTU21D;65641;44.714;37.756;2023-06-19T05:28:32;26.22;54.81
75380;HTU21D;65641;44.714;37.756;2023-06-19T05:29:35;26.24;54.78
75380;HTU21D;65641;44.714;37.756;2023-06-19T05:30:39;26.26;54.77
75380;HTU21D;65641;44.714;37.756;2023-06-19T05:31:42;26.27;54.79
75380;HTU21D;65641;44.714;37.756;2023-06-19T05:32:51;26.28;54.70
75380;HTU21D;65641;44.714;37.756;2023-06-19T05:33:54;26.33;54.66
75380;HTU21D;65641;44.714;37.756;2023-06-19T05:34:58;26.33;54.66
75380;HTU21D;65641;44.714;37.756;2023-06-19T05:36:01;26.36;54.57
75380;HTU21D;65641;44.714;37.756;2023-06-19T05:37:05;26.37;54.55
75380;HTU21D;65641;44.714;37.756;2023-06-19T05:38:09;26.38;54.47
75380;HTU21D;65641;44.714;37.756;2023-06-19T05:39:13;26.41;54.42
75380;HTU21D;65641;44.714;37.756;2023-06-19T05:40:17;26.40;54.57
75380;HTU21D;65641;44.714;37.756;2023-06-19T05:41:21;26.41;54.53
75380;HTU21D;65641;44.714;37.756;2023-06-19T05:42:25;26.43;54.53
75380;HTU21D;65641;44.714;37.756;2023-06-19T05:43:28;26.46;54.46
75380;HTU21D;65641;44.714;37.756;2023-06-19T05:44:32;26.47;54.42
75380;HTU21D;65641;44.714;37.756;2023-06-19T05:45:35;26.48;54.42
75380;HTU21D;65641;44.714;37.756;2023-06-19T05:46:39;26.50;54.54
75380;HTU21D;65641;44.714;37.756;2023-06-19T05:47:42;26.50;54.37
75380;HTU21D;65641;44.714;37.756;2023-06-19T05:48:47;26.52;54.42
75380;HTU21D;65641;44.714;37.756;2023-06-19T05:49:50;26.54;54.37
75380;HTU21D;65641;44.714;37.756;2023-06-19T05:50:54;26.56;54.34
75380;HTU21D;65641;44.714;37.756;2023-06-19T05:51:58;26.56;54.33
75380;HTU21D;65641;44.714;37.756;2023-06-19T05:53:02;26.58;54.28
75380;HTU21D;65641;44.714;37.756;2023-06-19T05:54:05;26.61;54.22
75380;HTU21D;65641;44.714;37.756;2023-06-19T05:55:10;26.63;54.16
75380;HTU21D;65641;44.714;37.756;2023-06-19T05:56:14;26.66;54.04
75380;HTU21D;65641;44.714;37.756;2023-06-19T05:57:17;26.69;54.10
75380;HTU21D;65641;44.714;37.756;2023-06-19T05:58:24;26.69;54.04
75380;HTU21D;65641;44.714;37.756;2023-06-19T05:59:28;26.72;54.05
75380;HTU21D;65641;44.714;37.756;2023-06-19T06:00:32;26.77;53.91
75380;HTU21D;65641;44.714;37.756;2023-06-19T06:01:35;26.80;53.91
75380;HTU21D;65641;44.714;37.756;2023-06-19T06:02:39;26.82;53.72
75380;HTU21D;65641;44.714;37.756;2023-06-19T06:03:42;26.86;53.67
75380;HTU21D;65641;44.714;37.756;2023-06-19T06:04:46;26.91;53.62
75380;HTU21D;65641;44.714;37.756;2023-06-19T06:05:50;26.95;53.43
75380;HTU21D;65641;44.714;37.756;2023-06-19T06:06:53;26.99;53.31
75380;HTU21D;65641;44.714;37.756;2023-06-19T06:07:58;27.04;53.37
75380;HTU21D;65641;44.714;37.756;2023-06-19T06:09:08;27.07;53.24
75380;HTU21D;65641;44.714;37.756;2023-06-19T06:10:15;27.11;53.15
75380;HTU21D;65641;44.714;37.756;2023-06-19T06:11:20;27.15;53.02
75380;HTU21D;65641;44.714;37.756;2023-06-19T06:12:23;27.20;52.96
75380;HTU21D;65641;44.714;37.756;2023-06-19T06:13:27;27.24;52.82
75380;HTU21D;65641;44.714;37.756;2023-06-19T06:14:30;27.29;52.69
75380;HTU21D;65641;44.714;37.756;2023-06-19T06:15:34;27.34;52.71
75380;HTU21D;65641;44.714;37.756;2023-06-19T06:16:37;27.37;52.52
75380;HTU21D;65641;44.714;37.756;2023-06-19T06:17:41;27.40;52.43
75380;HTU21D;65641;44.714;37.756;2023-06-19T06:18:45;27.41;52.43
75380;HTU21D;65641;44.714;37.756;2023-06-19T06:19:49;27.45;52.43
75380;HTU21D;65641;44.714;37.756;2023-06-19T06:20:52;27.45;52.40
75380;HTU21D;65641;44.714;37.756;2023-06-19T06:21:56;27.49;52.43
75380;HTU21D;65641;44.714;37.756;2023-06-19T06:22:59;27.51;52.23
75380;HTU21D;65641;44.714;37.756;2023-06-19T06:24:03;27.52;52.33
75380;HTU21D;65641;44.714;37.756;2023-06-19T06:25:07;27.54;52.29
75380;HTU21D;65641;44.714;37.756;2023-06-19T06:26:14;27.54;52.36
75380;HTU21D;65641;44.714;37.756;2023-06-19T06:27:18;27.56;52.28
75380;HTU21D;65641;44.714;37.756;2023-06-19T06:28:21;27.57;52.28
75380;HTU21D;65641;44.714;37.756;2023-06-19T06:29:25;27.60;52.22
75380;HTU21D;65641;44.714;37.756;2023-06-19T06:30:28;27.63;52.25
75380;HTU21D;65641;44.714;37.756;2023-06-19T06:31:32;27.64;52.31
75380;HTU21D;65641;44.714;37.756;2023-06-19T06:32:40;27.67;52.24
75380;HTU21D;65641;44.714;37.756;2023-06-19T06:33:44;27.69;52.22
75380;HTU21D;65641;44.714;37.756;2023-06-19T06:34:51;27.72;52.14
75380;HTU21D;65641;44.714;37.756;2023-06-19T06:35:58;27.72;52.15
75380;HTU21D;65641;44.714;37.756;2023-06-19T06:37:02;27.74;52.20
75380;HTU21D;65641;44.714;37.756;2023-06-19T06:38:08;27.78;51.91
75380;HTU21D;65641;44.714;37.756;2023-06-19T06:39:11;27.80;52.07
75380;HTU21D;65641;44.714;37.756;2023-06-19T06:40:15;27.82;52.04